sensor_id;sensor_type;location;lat;lon;timestamp;P1;durP1;ratioP1;P2;durP2;ratioP2
38853;SDS011;24606;51.992;4.198;2023-10-19T00:02:35;3.08;;;1.17;;
38853;SDS011;24606;51.992;4.198;2023-10-19T00:07:37;2.95;;;1.25;;
38853;SDS011;24606;51.992;4.198;2023-10-19T00:12:40;1.65;;;1.13;;
38853;SDS011;24606;51.992;4.198;2023-10-19T00:17:43;4.45;;;1.77;;
38853;SDS011;24606;51.992;4.198;2023-10-19T00:22:45;1.38;;;1.08;;
38853;SDS011;24606;51.992;4.198;2023-10-19T00:32:52;4.40;;;1.17;;
38853;SDS011;24606;51.992;4.198;2023-10-19T00:37:55;1.85;;;1.35;;
38853;SDS011;24606;51.992;4.198;2023-10-19T00:43:27;1.45;;;1.17;;
38853;SDS011;24606;51.992;4.198;2023-10-19T00:48:33;2.00;;;1.27;;
38853;SDS011;24606;51.992;4.198;2023-10-19T00:53:35;2.88;;;2.30;;
38853;SDS011;24606;51.992;4.198;2023-10-19T00:58:41;3.67;;;1.88;;
38853;SDS011;24606;51.992;4.198;2023-10-19T01:03:48;1.88;;;1.63;;
38853;SDS011;24606;51.992;4.198;2023-10-19T01:08:53;5.70;;;2.35;;
38853;SDS011;24606;51.992;4.198;2023-10-19T01:13:56;4.05;;;2.35;;
38853;SDS011;24606;51.992;4.198;2023-10-19T01:18:59;4.45;;;1.70;;
38853;SDS011;24606;51.992;4.198;2023-10-19T01:24:07;1.95;;;1.10;;
38853;SDS011;24606;51.992;4.198;2023-10-19T01:29:12;1.70;;;0.75;;
38853;SDS011;24606;51.992;4.198;2023-10-19T01:34:16;4.45;;;0.80;;
38853;SDS011;24606;51.992;4.198;2023-10-19T01:39:21;3.40;;;0.75;;
38853;SDS011;24606;51.992;4.198;2023-10-19T01:44:23;1.95;;;0.50;;
38853;SDS011;24606;51.992;4.198;2023-10-19T01:49:26;1.95;;;0.80;;
38853;SDS011;24606;51.992;4.198;2023-10-19T01:54:30;2.67;;;1.20;;
38853;SDS011;24606;51.992;4.198;2023-10-19T01:59:34;1.55;;;0.68;;
38853;SDS011;24606;51.992;4.198;2023-10-19T02:04:36;0.73;;;0.70;;
38853;SDS011;24606;51.992;4.198;2023-10-19T02:09:42;5.03;;;0.98;;
38853;SDS011;24606;51.992;4.198;2023-10-19T02:14:44;3.58;;;1.10;;
38853;SDS011;24606;51.992;4.198;2023-10-19T02:19:46;2.10;;;0.60;;
38853;SDS011;24606;51.992;4.198;2023-10-19T02:24:49;5.27;;;0.63;;
38853;SDS011;24606;51.992;4.198;2023-10-19T02:29:51;2.08;;;0.60;;
38853;SDS011;24606;51.992;4.198;2023-10-19T02:34:53;1.77;;;0.50;;
38853;SDS011;24606;51.992;4.198;2023-10-19T02:39:56;3.08;;;1.30;;
38853;SDS011;24606;51.992;4.198;2023-10-19T02:44:58;1.48;;;0.60;;
38853;SDS011;24606;51.992;4.198;2023-10-19T02:50:00;2.57;;;0.60;;
38853;SDS011;24606;51.992;4.198;2023-10-19T02:55:11;3.25;;;0.50;;
38853;SDS011;24606;51.992;4.198;2023-10-19T03:15:29;9.50;;;0.60;;
38853;SDS011;24606;51.992;4.198;2023-10-19T03:20:33;3.17;;;0.70;;
38853;SDS011;24606;51.992;4.198;2023-10-19T03:25:38;2.13;;;0.50;;
38853;SDS011;24606;51.992;4.198;2023-10-19T03:30:56;0.80;;;0.50;;
38853;SDS011;24606;51.992;4.198;2023-10-19T03:35:59;1.02;;;0.38;;
38853;SDS011;24606;51.992;4.198;2023-10-19T03:41:01;5.75;;;0.68;;
38853;SDS011;24606;51.992;4.198;2023-10-19T03:46:08;2.10;;;0.60;;
38853;SDS011;24606;51.992;4.198;2023-10-19T03:51:22;4.05;;;0.90;;
38853;SDS011;24606;51.992;4.198;2023-10-19T03:56:25;1.65;;;0.40;;
38853;SDS011;24606;51.992;4.198;2023-10-19T04:01:28;0.90;;;0.45;;
38853;SDS011;24606;51.992;4.198;2023-10-19T04:06:31;2.90;;;0.70;;
38853;SDS011;24606;51.992;4.198;2023-10-19T04:11:33;0.30;;;0.30;;
38853;SDS011;24606;51.992;4.198;2023-10-19T04:16:49;1.02;;;0.45;;
38853;SDS011;24606;51.992;4.198;2023-10-19T04:21:51;3.92;;;0.50;;
38853;SDS011;24606;51.992;4.198;2023-10-19T04:26:53;1.10;;;0.50;;
38853;SDS011;24606;51.992;4.198;2023-10-19T04:32:00;1.90;;;0.60;;
38853;SDS011;24606;51.992;4.198;2023-10-19T04:37:06;2.83;;;0.95;;
38853;SDS011;24606;51.992;4.198;2023-10-19T04:42:12;3.38;;;0.80;;
38853;SDS011;24606;51.992;4.198;2023-10-19T04:52:18;0.90;;;0.40;;
38853;SDS011;24606;51.992;4.198;2023-10-19T04:57:19;5.75;;;0.88;;
38853;SDS011;24606;51.992;4.198;2023-10-19T05:02:23;0.85;;;0.32;;
38853;SDS011;24606;51.992;4.198;2023-10-19T05:07:25;2.75;;;0.65;;
38853;SDS011;24606;51.992;4.198;2023-10-19T05:12:27;0.68;;;0.40;;
38853;SDS011;24606;51.992;4.198;2023-10-19T05:17:30;2.25;;;0.80;;
38853;SDS011;24606;51.992;4.198;2023-10-19T05:22:32;1.98;;;0.30;;
38853;SDS011;24606;51.992;4.198;2023-10-19T05:27:33;3.25;;;1.00;;
38853;SDS011;24606;51.992;4.198;2023-10-19T05:32:37;1.55;;;0.40;;
38853;SDS011;24606;51.992;4.198;2023-10-19T05:37:38;1.00;;;0.50;;
38853;SDS011;24606;51.992;4.198;2023-10-19T05:42:41;2.65;;;0.80;;
38853;SDS011;24606;51.992;4.198;2023-10-19T05:47:44;1.13;;;0.40;;
38853;SDS011;24606;51.992;4.198;2023-10-19T05:52:46;2.90;;;0.50;;
38853;SDS011;24606;51.992;4.198;2023-10-19T05:57:48;1.25;;;0.30;;
38853;SDS011;24606;51.992;4.198;2023-10-19T06:02:52;2.90;;;0.60;;
38853;SDS011;24606;51.992;4.198;2023-10-19T06:07:54;1.42;;;0.55;;
38853;SDS011;24606;51.992;4.198;2023-10-19T06:12:56;1.98;;;0.80;;
38853;SDS011;24606;51.992;4.198;2023-10-19T06:17:59;2.17;;;0.45;;
38853;SDS011;24606;51.992;4.198;2023-10-19T06:23:01;3.33;;;0.50;;
38853;SDS011;24606;51.992;4.198;2023-10-19T06:28:05;2.72;;;0.73;;
38853;SDS011;24606;51.992;4.198;2023-10-19T06:33:08;1.88;;;0.60;;
38853;SDS011;24606;51.992;4.198;2023-10-19T06:38:11;3.28;;;0.70;;
38853;SDS011;24606;51.992;4.198;2023-10-19T06:43:12;4.80;;;0.73;;
38853;SDS011;24606;51.992;4.198;2023-10-19T06:48:15;2.30;;;0.40;;
38853;SDS011;24606;51.992;4.198;2023-10-19T06:53:17;1.48;;;0.70;;
38853;SDS011;24606;51.992;4.198;2023-10-19T06:58:20;3.08;;;0.30;;
38853;SDS011;24606;51.992;4.198;2023-10-19T07:03:27;3.08;;;0.80;;
38853;SDS011;24606;51.992;4.198;2023-10-19T07:08:29;1.38;;;0.45;;
38853;SDS011;24606;51.992;4.198;2023-10-19T07:18:35;1.20;;;0.50;;
38853;SDS011;24606;51.992;4.198;2023-10-19T07:23:37;3.22;;;0.50;;
38853;SDS011;24606;51.992;4.198;2023-10-19T07:28:40;1.35;;;0.35;;
38853;SDS011;24606;51.992;4.198;2023-10-19T07:38:47;3.85;;;0.75;;
38853;SDS011;24606;51.992;4.198;2023-10-19T07:43:48;3.40;;;0.70;;
38853;SDS011;24606;51.992;4.198;2023-10-19T07:48:51;1.77;;;0.70;;
38853;SDS011;24606;51.992;4.198;2023-10-19T07:53:53;4.90;;;1.15;;
38853;SDS011;24606;51.992;4.198;2023-10-19T07:58:55;3.03;;;0.70;;
38853;SDS011;24606;51.992;4.198;2023-10-19T08:03:58;3.60;;;0.90;;
38853;SDS011;24606;51.992;4.198;2023-10-19T08:09:00;1.38;;;0.50;;
38853;SDS011;24606;51.992;4.198;2023-10-19T08:14:05;1.00;;;0.50;;
38853;SDS011;24606;51.992;4.198;2023-10-19T08:19:08;2.33;;;0.60;;
38853;SDS011;24606;51.992;4.198;2023-10-19T08:24:12;1.25;;;0.40;;
38853;SDS011;24606;51.992;4.198;2023-10-19T08:29:17;3.20;;;0.77;;
38853;SDS011;24606;51.992;4.198;2023-10-19T08:34:21;4.22;;;0.98;;
38853;SDS011;24606;51.992;4.198;2023-10-19T08:39:25;7.20;;;0.88;;
38853;SDS011;24606;51.992;4.198;2023-10-19T08:44:27;5.03;;;1.10;;
38853;SDS011;24606;51.992;4.198;2023-10-19T08:49:31;6.20;;;0.77;;
38853;SDS011;24606;51.992;4.198;2023-10-19T08:54:33;7.88;;;0.95;;
38853;SDS011;24606;51.992;4.198;2023-10-19T08:59:35;8.75;;;0.68;;
38853;SDS011;24606;51.992;4.198;2023-10-19T09:04:43;11.77;;;1.10;;
38853;SDS011;24606;51.992;4.198;2023-10-19T09:09:45;5.03;;;0.93;;
38853;SDS011;24606;51.992;4.198;2023-10-19T09:14:47;2.60;;;0.80;;
38853;SDS011;24606;51.992;4.198;2023-10-19T09:24:54;8.25;;;1.10;;
38853;SDS011;24606;51.992;4.198;2023-10-19T09:29:56;6.70;;;1.35;;
38853;SDS011;24606;51.992;4.198;2023-10-19T09:34:59;5.32;;;0.70;;
38853;SDS011;24606;51.992;4.198;2023-10-19T09:40:03;9.65;;;1.35;;
38853;SDS011;24606;51.992;4.198;2023-10-19T09:45:06;5.90;;;1.10;;
38853;SDS011;24606;51.992;4.198;2023-10-19T09:50:10;5.75;;;0.95;;
38853;SDS011;24606;51.992;4.198;2023-10-19T09:55:12;2.40;;;0.60;;
38853;SDS011;24606;51.992;4.198;2023-10-19T10:00:23;7.32;;;1.20;;
38853;SDS011;24606;51.992;4.198;2023-10-19T10:10:48;3.50;;;1.77;;
38853;SDS011;24606;51.992;4.198;2023-10-19T10:15:51;5.65;;;1.00;;
38853;SDS011;24606;51.992;4.198;2023-10-19T10:21:05;5.57;;;1.08;;
38853;SDS011;24606;51.992;4.198;2023-10-19T10:26:12;7.07;;;1.42;;
38853;SDS011;24606;51.992;4.198;2023-10-19T10:31:14;7.43;;;1.45;;
38853;SDS011;24606;51.992;4.198;2023-10-19T10:36:22;5.97;;;1.10;;
38853;SDS011;24606;51.992;4.198;2023-10-19T10:41:26;13.30;;;2.25;;
38853;SDS011;24606;51.992;4.198;2023-10-19T10:46:29;5.35;;;1.35;;
38853;SDS011;24606;51.992;4.198;2023-10-19T10:51:33;11.13;;;1.38;;
38853;SDS011;24606;51.992;4.198;2023-10-19T10:56:39;6.63;;;1.30;;
38853;SDS011;24606;51.992;4.198;2023-10-19T11:01:41;5.82;;;1.75;;
38853;SDS011;24606;51.992;4.198;2023-10-19T11:06:51;8.68;;;1.02;;
38853;SDS011;24606;51.992;4.198;2023-10-19T11:11:55;6.07;;;0.90;;
38853;SDS011;24606;51.992;4.198;2023-10-19T11:17:11;5.78;;;0.95;;
38853;SDS011;24606;51.992;4.198;2023-10-19T11:22:16;2.75;;;0.90;;
38853;SDS011;24606;51.992;4.198;2023-10-19T11:27:24;7.80;;;1.40;;
38853;SDS011;24606;51.992;4.198;2023-10-19T11:32:35;10.38;;;2.22;;
38853;SDS011;24606;51.992;4.198;2023-10-19T11:37:50;9.18;;;1.25;;
38853;SDS011;24606;51.992;4.198;2023-10-19T11:42:53;9.27;;;2.30;;
38853;SDS011;24606;51.992;4.198;2023-10-19T11:47:57;9.57;;;1.75;;
38853;SDS011;24606;51.992;4.198;2023-10-19T11:53:01;6.07;;;0.95;;
38853;SDS011;24606;51.992;4.198;2023-10-19T11:58:03;5.50;;;1.13;;
38853;SDS011;24606;51.992;4.198;2023-10-19T12:08:08;4.50;;;0.97;;
38853;SDS011;24606;51.992;4.198;2023-10-19T12:13:10;4.25;;;1.13;;
38853;SDS011;24606;51.992;4.198;2023-10-19T12:18:12;4.20;;;1.45;;
38853;SDS011;24606;51.992;4.198;2023-10-19T12:23:15;5.00;;;0.93;;
38853;SDS011;24606;51.992;4.198;2023-10-19T12:28:17;5.55;;;1.10;;
38853;SDS011;24606;51.992;4.198;2023-10-19T12:33:19;4.22;;;1.10;;
38853;SDS011;24606;51.992;4.198;2023-10-19T12:38:22;3.92;;;1.10;;
38853;SDS011;24606;51.992;4.198;2023-10-19T12:43:25;6.93;;;1.10;;
38853;SDS011;24606;51.992;4.198;2023-10-19T12:48:30;3.53;;;0.98;;
38853;SDS011;24606;51.992;4.198;2023-10-19T12:53:34;4.15;;;1.52;;
38853;SDS011;24606;51.992;4.198;2023-10-19T12:58:38;3.90;;;1.77;;
38853;SDS011;24606;51.992;4.198;2023-10-19T13:03:41;3.88;;;0.88;;
38853;SDS011;24606;51.992;4.198;2023-10-19T13:08:46;1.63;;;0.80;;
38853;SDS011;24606;51.992;4.198;2023-10-19T13:13:48;5.68;;;1.55;;
38853;SDS011;24606;51.992;4.198;2023-10-19T13:18:50;4.18;;;1.00;;
38853;SDS011;24606;51.992;4.198;2023-10-19T13:23:53;3.28;;;1.02;;
38853;SDS011;24606;51.992;4.198;2023-10-19T13:28:55;4.78;;;1.10;;
38853;SDS011;24606;51.992;4.198;2023-10-19T13:33:57;4.15;;;1.17;;
38853;SDS011;24606;51.992;4.198;2023-10-19T13:39:01;2.45;;;0.90;;
38853;SDS011;24606;51.992;4.198;2023-10-19T13:47:31;3.83;;;1.00;;
38853;SDS011;24606;51.992;4.198;2023-10-19T13:52:34;6.03;;;0.95;;
38853;SDS011;24606;51.992;4.198;2023-10-19T13:57:36;5.70;;;1.38;;
38853;SDS011;24606;51.992;4.198;2023-10-19T14:02:39;8.18;;;1.42;;
38853;SDS011;24606;51.992;4.198;2023-10-19T14:07:41;4.22;;;1.40;;
38853;SDS011;24606;51.992;4.198;2023-10-19T14:12:43;4.65;;;1.63;;
38853;SDS011;24606;51.992;4.198;2023-10-19T14:17:47;4.88;;;1.08;;
38853;SDS011;24606;51.992;4.198;2023-10-19T14:22:50;3.72;;;1.23;;
38853;SDS011;24606;51.992;4.198;2023-10-19T14:27:54;2.17;;;0.82;;
38853;SDS011;24606;51.992;4.198;2023-10-19T14:33:00;3.25;;;1.08;;
38853;SDS011;24606;51.992;4.198;2023-10-19T14:38:03;4.35;;;1.30;;
38853;SDS011;24606;51.992;4.198;2023-10-19T14:43:06;2.25;;;0.88;;
38853;SDS011;24606;51.992;4.198;2023-10-19T14:48:09;5.82;;;1.15;;
38853;SDS011;24606;51.992;4.198;2023-10-19T14:53:11;3.55;;;1.10;;
38853;SDS011;24606;51.992;4.198;2023-10-19T14:58:13;4.85;;;1.08;;
38853;SDS011;24606;51.992;4.198;2023-10-19T15:03:16;3.70;;;1.13;;
38853;SDS011;24606;51.992;4.198;2023-10-19T15:08:19;3.58;;;1.40;;
38853;SDS011;24606;51.992;4.198;2023-10-19T15:13:24;5.50;;;1.23;;
38853;SDS011;24606;51.992;4.198;2023-10-19T15:18:27;5.63;;;1.02;;
38853;SDS011;24606;51.992;4.198;2023-10-19T15:23:28;5.00;;;1.15;;
38853;SDS011;24606;51.992;4.198;2023-10-19T15:28:30;5.13;;;1.80;;
38853;SDS011;24606;51.992;4.198;2023-10-19T15:33:34;4.90;;;1.60;;
38853;SDS011;24606;51.992;4.198;2023-10-19T15:38:36;5.40;;;0.98;;
38853;SDS011;24606;51.992;4.198;2023-10-19T15:43:38;2.42;;;1.30;;
38853;SDS011;24606;51.992;4.198;2023-10-19T15:48:41;4.00;;;1.38;;
38853;SDS011;24606;51.992;4.198;2023-10-19T15:53:43;4.50;;;1.63;;
38853;SDS011;24606;51.992;4.198;2023-10-19T15:58:45;3.03;;;1.05;;
38853;SDS011;24606;51.992;4.198;2023-10-19T16:03:48;4.97;;;1.05;;
38853;SDS011;24606;51.992;4.198;2023-10-19T16:08:50;2.45;;;1.15;;
38853;SDS011;24606;51.992;4.198;2023-10-19T16:13:52;6.00;;;1.50;;
38853;SDS011;24606;51.992;4.198;2023-10-19T16:18:56;4.85;;;1.50;;
38853;SDS011;24606;51.992;4.198;2023-10-19T16:23:58;5.45;;;1.23;;
38853;SDS011;24606;51.992;4.198;2023-10-19T16:29:00;2.65;;;1.30;;
38853;SDS011;24606;51.992;4.198;2023-10-19T16:34:06;3.20;;;1.15;;
38853;SDS011;24606;51.992;4.198;2023-10-19T16:39:08;6.20;;;1.30;;
38853;SDS011;24606;51.992;4.198;2023-10-19T16:44:16;3.03;;;1.00;;
38853;SDS011;24606;51.992;4.198;2023-10-19T16:49:19;4.68;;;1.17;;
38853;SDS011;24606;51.992;4.198;2023-10-19T16:54:20;3.38;;;0.80;;
38853;SDS011;24606;51.992;4.198;2023-10-19T16:59:22;5.32;;;1.08;;
38853;SDS011;24606;51.992;4.198;2023-10-19T17:04:27;6.05;;;1.33;;
38853;SDS011;24606;51.992;4.198;2023-10-19T17:09:30;3.28;;;1.73;;
38853;SDS011;24606;51.992;4.198;2023-10-19T17:14:31;9.40;;;1.63;;
38853;SDS011;24606;51.992;4.198;2023-10-19T17:19:34;6.47;;;2.00;;
38853;SDS011;24606;51.992;4.198;2023-10-19T17:24:36;6.53;;;1.48;;
38853;SDS011;24606;51.992;4.198;2023-10-19T17:29:38;8.82;;;2.17;;
38853;SDS011;24606;51.992;4.198;2023-10-19T17:34:41;8.10;;;2.58;;
38853;SDS011;24606;51.992;4.198;2023-10-19T17:39:44;7.00;;;1.92;;
38853;SDS011;24606;51.992;4.198;2023-10-19T17:44:46;10.85;;;2.13;;
38853;SDS011;24606;51.992;4.198;2023-10-19T17:49:49;19.95;;;2.40;;
38853;SDS011;24606;51.992;4.198;2023-10-19T17:54:52;7.75;;;2.10;;
38853;SDS011;24606;51.992;4.198;2023-10-19T17:59:55;19.67;;;3.65;;
38853;SDS011;24606;51.992;4.198;2023-10-19T18:05:07;8.40;;;2.42;;
38853;SDS011;24606;51.992;4.198;2023-10-19T18:10:21;15.98;;;2.92;;
38853;SDS011;24606;51.992;4.198;2023-10-19T18:15:40;19.80;;;4.88;;
38853;SDS011;24606;51.992;4.198;2023-10-19T18:21:34;17.98;;;4.20;;
38853;SDS011;24606;51.992;4.198;2023-10-19T18:26:59;17.60;;;4.72;;
38853;SDS011;24606;51.992;4.198;2023-10-19T18:32:01;19.55;;;4.88;;
38853;SDS011;24606;51.992;4.198;2023-10-19T18:37:04;18.73;;;4.25;;
38853;SDS011;24606;51.992;4.198;2023-10-19T18:42:06;15.25;;;4.07;;
38853;SDS011;24606;51.992;4.198;2023-10-19T18:47:10;17.73;;;5.00;;
38853;SDS011;24606;51.992;4.198;2023-10-19T18:52:13;14.98;;;4.28;;
38853;SDS011;24606;51.992;4.198;2023-10-19T18:57:15;13.32;;;4.07;;
38853;SDS011;24606;51.992;4.198;2023-10-19T19:02:16;10.38;;;4.05;;
38853;SDS011;24606;51.992;4.198;2023-10-19T19:07:19;13.80;;;4.13;;
38853;SDS011;24606;51.992;4.198;2023-10-19T19:12:22;10.40;;;3.47;;
38853;SDS011;24606;51.992;4.198;2023-10-19T19:17:25;13.95;;;3.70;;
38853;SDS011;24606;51.992;4.198;2023-10-19T19:22:28;17.80;;;4.25;;
38853;SDS011;24606;51.992;4.198;2023-10-19T19:27:33;13.10;;;3.45;;
38853;SDS011;24606;51.992;4.198;2023-10-19T19:32:35;12.77;;;3.35;;
38853;SDS011;24606;51.992;4.198;2023-10-19T19:37:38;15.23;;;4.00;;
38853;SDS011;24606;51.992;4.198;2023-10-19T19:42:41;15.18;;;3.85;;
38853;SDS011;24606;51.992;4.198;2023-10-19T19:47:43;18.08;;;4.18;;
38853;SDS011;24606;51.992;4.198;2023-10-19T19:52:47;14.82;;;4.25;;
38853;SDS011;24606;51.992;4.198;2023-10-19T19:57:49;20.85;;;4.82;;
38853;SDS011;24606;51.992;4.198;2023-10-19T20:02:51;22.00;;;6.05;;
38853;SDS011;24606;51.992;4.198;2023-10-19T20:07:55;21.30;;;4.40;;
38853;SDS011;24606;51.992;4.198;2023-10-19T20:12:57;18.88;;;4.45;;
38853;SDS011;24606;51.992;4.198;2023-10-19T20:23:03;16.67;;;3.95;;
38853;SDS011;24606;51.992;4.198;2023-10-19T20:28:05;17.35;;;5.03;;
38853;SDS011;24606;51.992;4.198;2023-10-19T20:33:07;18.38;;;4.90;;
38853;SDS011;24606;51.992;4.198;2023-10-19T20:38:13;13.30;;;3.80;;
38853;SDS011;24606;51.992;4.198;2023-10-19T20:43:19;11.48;;;4.20;;
38853;SDS011;24606;51.992;4.198;2023-10-19T20:48:21;10.45;;;3.33;;
38853;SDS011;24606;51.992;4.198;2023-10-19T20:53:25;15.95;;;4.55;;
38853;SDS011;24606;51.992;4.198;2023-10-19T20:58:27;13.15;;;3.70;;
38853;SDS011;24606;51.992;4.198;2023-10-19T21:03:29;13.45;;;3.47;;
38853;SDS011;24606;51.992;4.198;2023-10-19T21:08:33;12.68;;;2.83;;
38853;SDS011;24606;51.992;4.198;2023-10-19T21:13:35;14.15;;;3.25;;
38853;SDS011;24606;51.992;4.198;2023-10-19T21:18:37;13.73;;;3.20;;
38853;SDS011;24606;51.992;4.198;2023-10-19T21:28:42;11.02;;;3.85;;
38853;SDS011;24606;51.992;4.198;2023-10-19T21:38:47;8.20;;;2.97;;
38853;SDS011;24606;51.992;4.198;2023-10-19T21:43:49;15.23;;;3.55;;
38853;SDS011;24606;51.992;4.198;2023-10-19T21:48:51;6.63;;;2.75;;
38853;SDS011;24606;51.992;4.198;2023-10-19T21:58:56;6.88;;;2.63;;
38853;SDS011;24606;51.992;4.198;2023-10-19T22:03:58;5.28;;;2.55;;
38853;SDS011;24606;51.992;4.198;2023-10-19T22:09:03;17.17;;;3.85;;
38853;SDS011;24606;51.992;4.198;2023-10-19T22:14:06;9.70;;;2.50;;
38853;SDS011;24606;51.992;4.198;2023-10-19T22:19:08;6.07;;;2.50;;
38853;SDS011;24606;51.992;4.198;2023-10-19T22:24:11;4.93;;;2.33;;
38853;SDS011;24606;51.992;4.198;2023-10-19T22:29:13;5.38;;;2.47;;
38853;SDS011;24606;51.992;4.198;2023-10-19T22:34:14;5.75;;;2.20;;
38853;SDS011;24606;51.992;4.198;2023-10-19T22:39:18;5.57;;;2.28;;
38853;SDS011;24606;51.992;4.198;2023-10-19T22:44:20;9.30;;;2.58;;
38853;SDS011;24606;51.992;4.198;2023-10-19T22:54:25;6.70;;;2.03;;
38853;SDS011;24606;51.992;4.198;2023-10-19T22:59:26;6.07;;;2.08;;
38853;SDS011;24606;51.992;4.198;2023-10-19T23:04:28;12.43;;;2.10;;
38853;SDS011;24606;51.992;4.198;2023-10-19T23:09:33;5.13;;;2.40;;
38853;SDS011;24606;51.992;4.198;2023-10-19T23:14:36;11.98;;;2.50;;
38853;SDS011;24606;51.992;4.198;2023-10-19T23:19:45;5.20;;;1.98;;
38853;SDS011;24606;51.992;4.198;2023-10-19T23:24:53;3.85;;;1.70;;
38853;SDS011;24606;51.992;4.198;2023-10-19T23:29:58;6.45;;;1.63;;
38853;SDS011;24606;51.992;4.198;2023-10-19T23:34:59;2.65;;;1.38;;
38853;SDS011;24606;51.992;4.198;2023-10-19T23:40:03;10.40;;;2.42;;
38853;SDS011;24606;51.992;4.198;2023-10-19T23:45:08;4.90;;;1.88;;
38853;SDS011;24606;51.992;4.198;2023-10-19T23:50:12;4.93;;;2.35;;
38853;SDS011;24606;51.992;4.198;2023-10-19T23:55:15;3.22;;;1.52;;
